sensor_id;sensor_type;location;lat;lon;timestamp;pressure;altitude;pressure_sealevel;temperature;humidity
12664;BME280;6396;58.490;15.528;2023-02-19T00:00:32;99940.47;;;2.19;100.00
12664;BME280;6396;58.490;15.528;2023-02-19T00:02:59;99366.38;;;-1.12;100.00
12664;BME280;6396;58.490;15.528;2023-02-19T00:05:26;99277.47;;;-1.03;100.00
12664;BME280;6396;58.490;15.528;2023-02-19T00:07:54;99917.94;;;2.15;100.00
12664;BME280;6396;58.490;15.528;2023-02-19T00:10:22;99739.66;;;0.95;100.00
12664;BME280;6396;58.490;15.528;2023-02-19T00:12:49;99814.09;;;1.32;100.00
12664;BME280;6396;58.490;15.528;2023-02-19T00:15:17;99050.81;;;-2.95;100.00
12664;BME280;6396;58.490;15.528;2023-02-19T00:17:44;99035.28;;;-3.24;100.00
12664;BME280;6396;58.490;15.528;2023-02-19T00:20:11;99019.00;;;-2.67;100.00
12664;BME280;6396;58.490;15.528;2023-02-19T00:22:38;99896.28;;;2.04;100.00
12664;BME280;6396;58.490;15.528;2023-02-19T00:25:05;99839.91;;;1.91;100.00
12664;BME280;6396;58.490;15.528;2023-02-19T00:27:33;99566.69;;;0.25;100.00
12664;BME280;6396;58.490;15.528;2023-02-19T00:30:00;99806.22;;;1.56;100.00
12664;BME280;6396;58.490;15.528;2023-02-19T00:32:27;99484.66;;;-0.28;100.00
12664;BME280;6396;58.490;15.528;2023-02-19T00:34:54;99720.66;;;0.84;100.00
12664;BME280;6396;58.490;15.528;2023-02-19T00:37:20;99774.25;;;1.27;100.00
12664;BME280;6396;58.490;15.528;2023-02-19T00:39:47;99305.97;;;-1.18;100.00
12664;BME280;6396;58.490;15.528;2023-02-19T00:42:14;99916.28;;;1.88;100.00
12664;BME280;6396;58.490;15.528;2023-02-19T00:44:42;99362.06;;;-1.08;100.00
12664;BME280;6396;58.490;15.528;2023-02-19T00:47:09;99530.41;;;0.19;100.00
12664;BME280;6396;58.490;15.528;2023-02-19T00:49:36;99507.09;;;-0.03;100.00
12664;BME280;6396;58.490;15.528;2023-02-19T00:52:03;99888.59;;;1.63;100.00
12664;BME280;6396;58.490;15.528;2023-02-19T00:54:30;99527.81;;;0.02;100.00
12664;BME280;6396;58.490;15.528;2023-02-19T00:56:57;99709.38;;;0.94;100.00
12664;BME280;6396;58.490;15.528;2023-02-19T00:59:23;99717.13;;;1.09;100.00
12664;BME280;6396;58.490;15.528;2023-02-19T01:01:52;99684.28;;;0.94;100.00
12664;BME280;6396;58.490;15.528;2023-02-19T01:04:19;99821.75;;;1.83;100.00
12664;BME280;6396;58.490;15.528;2023-02-19T01:06:46;99463.91;;;-0.22;100.00
12664;BME280;6396;58.490;15.528;2023-02-19T01:09:13;99776.75;;;1.54;100.00
12664;BME280;6396;58.490;15.528;2023-02-19T01:11:40;99611.72;;;0.09;100.00
12664;BME280;6396;58.490;15.528;2023-02-19T01:14:08;99673.97;;;0.33;100.00
12664;BME280;6396;58.490;15.528;2023-02-19T01:16:35;99923.22;;;1.86;100.00
12664;BME280;6396;58.490;15.528;2023-02-19T01:19:03;99885.91;;;1.87;100.00
12664;BME280;6396;58.490;15.528;2023-02-19T01:21:30;99236.94;;;-2.23;100.00
12664;BME280;6396;58.490;15.528;2023-02-19T01:23:57;99318.06;;;-1.31;100.00
12664;BME280;6396;58.490;15.528;2023-02-19T01:26:27;99776.91;;;1.06;100.00
12664;BME280;6396;58.490;15.528;2023-02-19T01:28:54;99755.25;;;0.96;100.00
12664;BME280;6396;58.490;15.528;2023-02-19T01:31:23;99323.19;;;-1.74;100.00
12664;BME280;6396;58.490;15.528;2023-02-19T01:33:51;98979.31;;;-3.52;100.00
12664;BME280;6396;58.490;15.528;2023-02-19T01:36:20;99495.91;;;-0.36;100.00
12664;BME280;6396;58.490;15.528;2023-02-19T01:38:47;99518.31;;;-0.05;100.00
12664;BME280;6396;58.490;15.528;2023-02-19T01:41:16;99466.53;;;-0.40;100.00
12664;BME280;6396;58.490;15.528;2023-02-19T01:43:58;99786.34;;;1.39;100.00
12664;BME280;6396;58.490;15.528;2023-02-19T01:46:26;99700.75;;;0.69;100.00
12664;BME280;6396;58.490;15.528;2023-02-19T01:48:54;99823.56;;;1.54;100.00
12664;BME280;6396;58.490;15.528;2023-02-19T01:51:24;99959.66;;;1.85;100.00
12664;BME280;6396;58.490;15.528;2023-02-19T01:53:55;98943.22;;;-3.49;100.00
12664;BME280;6396;58.490;15.528;2023-02-19T01:56:24;99299.06;;;-1.42;100.00
12664;BME280;6396;58.490;15.528;2023-02-19T01:58:53;99255.84;;;-2.27;100.00
12664;BME280;6396;58.490;15.528;2023-02-19T02:01:20;99093.75;;;-3.27;100.00
12664;BME280;6396;58.490;15.528;2023-02-19T02:03:48;98944.81;;;-3.84;100.00
12664;BME280;6396;58.490;15.528;2023-02-19T02:06:20;98953.47;;;-3.73;100.00
12664;BME280;6396;58.490;15.528;2023-02-19T02:08:52;99588.38;;;0.01;100.00
12664;BME280;6396;58.490;15.528;2023-02-19T02:11:46;99638.50;;;0.39;100.00
12664;BME280;6396;58.490;15.528;2023-02-19T02:14:14;99168.75;;;-2.78;100.00
12664;BME280;6396;58.490;15.528;2023-02-19T02:16:51;99558.09;;;-0.68;100.00
12664;BME280;6396;58.490;15.528;2023-02-19T02:19:30;99450.13;;;-0.78;100.00
12664;BME280;6396;58.490;15.528;2023-02-19T02:22:06;99324.09;;;-1.42;100.00
12664;BME280;6396;58.490;15.528;2023-02-19T02:27:50;99911.13;;;1.67;100.00
12664;BME280;6396;58.490;15.528;2023-02-19T02:30:28;99524.41;;;-0.86;100.00
12664;BME280;6396;58.490;15.528;2023-02-19T02:33:03;98961.22;;;-3.60;100.00
12664;BME280;6396;58.490;15.528;2023-02-19T02:35:45;99737.97;;;0.86;100.00
12664;BME280;6396;58.490;15.528;2023-02-19T02:38:14;99704.22;;;0.65;100.00
12664;BME280;6396;58.490;15.528;2023-02-19T02:40:48;99427.69;;;-0.97;100.00
12664;BME280;6396;58.490;15.528;2023-02-19T02:43:15;99799.41;;;0.42;100.00
12664;BME280;6396;58.490;15.528;2023-02-19T02:45:43;99586.63;;;-0.24;100.00
12664;BME280;6396;58.490;15.528;2023-02-19T02:48:34;99808.94;;;1.02;100.00
12664;BME280;6396;58.490;15.528;2023-02-19T02:51:11;99704.22;;;0.67;100.00
12664;BME280;6396;58.490;15.528;2023-02-19T02:53:42;99328.41;;;-1.67;100.00
12664;BME280;6396;58.490;15.528;2023-02-19T02:56:29;99573.69;;;-0.30;100.00
12664;BME280;6396;58.490;15.528;2023-02-19T02:58:57;99826.28;;;1.04;100.00
12664;BME280;6396;58.490;15.528;2023-02-19T03:01:30;99882.50;;;1.61;100.00
12664;BME280;6396;58.490;15.528;2023-02-19T03:04:29;99373.28;;;-1.27;100.00
12664;BME280;6396;58.490;15.528;2023-02-19T03:07:03;99834.94;;;0.93;100.00
12664;BME280;6396;58.490;15.528;2023-02-19T03:09:35;99063.53;;;-3.51;100.00
12664;BME280;6396;58.490;15.528;2023-02-19T03:12:08;99430.22;;;-1.27;100.00
12664;BME280;6396;58.490;15.528;2023-02-19T03:14:56;99672.25;;;0.27;100.00
12664;BME280;6396;58.490;15.528;2023-02-19T03:17:48;99048.69;;;-3.97;100.00
12664;BME280;6396;58.490;15.528;2023-02-19T03:20:37;99351.63;;;-1.85;100.00
12664;BME280;6396;58.490;15.528;2023-02-19T03:23:06;99139.13;;;-3.55;100.00
12664;BME280;6396;58.490;15.528;2023-02-19T03:25:36;99050.28;;;-4.16;100.00
12664;BME280;6396;58.490;15.528;2023-02-19T03:28:24;98938.69;;;-4.09;100.00
12664;BME280;6396;58.490;15.528;2023-02-19T03:31:07;99705.09;;;-0.02;100.00
12664;BME280;6396;58.490;15.528;2023-02-19T03:33:38;99898.16;;;1.40;100.00
12664;BME280;6396;58.490;15.528;2023-02-19T03:36:09;99455.97;;;-1.69;100.00
12664;BME280;6396;58.490;15.528;2023-02-19T03:38:42;99417.28;;;-1.39;100.00
12664;BME280;6396;58.490;15.528;2023-02-19T03:41:20;99125.38;;;-3.59;100.00
12664;BME280;6396;58.490;15.528;2023-02-19T03:43:52;99041.03;;;-3.81;100.00
12664;BME280;6396;58.490;15.528;2023-02-19T03:46:24;98885.81;;;-5.00;100.00
12664;BME280;6396;58.490;15.528;2023-02-19T03:48:59;99912.03;;;1.33;100.00
12664;BME280;6396;58.490;15.528;2023-02-19T03:51:31;99054.63;;;-4.12;100.00
12664;BME280;6396;58.490;15.528;2023-02-19T03:54:10;99017.66;;;-4.20;100.00
12664;BME280;6396;58.490;15.528;2023-02-19T03:56:43;99058.91;;;-4.11;100.00
12664;BME280;6396;58.490;15.528;2023-02-19T03:59:16;99064.84;;;-4.18;100.00
12664;BME280;6396;58.490;15.528;2023-02-19T04:01:50;99058.56;;;-4.55;100.00
12664;BME280;6396;58.490;15.528;2023-02-19T04:04:32;99509.31;;;-1.94;100.00
12664;BME280;6396;58.490;15.528;2023-02-19T04:07:01;99536.44;;;-1.09;100.00
12664;BME280;6396;58.490;15.528;2023-02-19T04:09:31;99045.06;;;-4.25;100.00
12664;BME280;6396;58.490;15.528;2023-02-19T04:12:00;100074.94;;;1.22;100.00
12664;BME280;6396;58.490;15.528;2023-02-19T04:14:30;99045.84;;;-4.35;100.00
12664;BME280;6396;58.490;15.528;2023-02-19T04:17:01;99826.16;;;0.00;100.00
12664;BME280;6396;58.490;15.528;2023-02-19T04:19:34;99191.66;;;-3.47;100.00
12664;BME280;6396;58.490;15.528;2023-02-19T04:22:04;99527.38;;;-2.01;100.00
12664;BME280;6396;58.490;15.528;2023-02-19T04:24:35;99088.25;;;-3.94;100.00
12664;BME280;6396;58.490;15.528;2023-02-19T04:27:04;99058.94;;;-4.08;100.00
12664;BME280;6396;58.490;15.528;2023-02-19T04:29:31;99931.97;;;1.28;100.00
12664;BME280;6396;58.490;15.528;2023-02-19T04:31:59;99102.69;;;-4.14;100.00
12664;BME280;6396;58.490;15.528;2023-02-19T04:34:26;99047.84;;;-3.96;100.00
12664;BME280;6396;58.490;15.528;2023-02-19T04:36:57;99147.38;;;-4.07;100.00
12664;BME280;6396;58.490;15.528;2023-02-19T04:39:24;99752.63;;;-0.14;100.00
12664;BME280;6396;58.490;15.528;2023-02-19T04:41:51;99063.13;;;-4.23;100.00
12664;BME280;6396;58.490;15.528;2023-02-19T04:44:18;99946.69;;;1.14;100.00
12664;BME280;6396;58.490;15.528;2023-02-19T04:46:46;98973.53;;;-4.65;100.00
12664;BME280;6396;58.490;15.528;2023-02-19T04:49:13;99396.38;;;-2.02;100.00
12664;BME280;6396;58.490;15.528;2023-02-19T04:51:41;99952.75;;;1.14;100.00
12664;BME280;6396;58.490;15.528;2023-02-19T04:54:10;99174.34;;;-3.60;100.00
12664;BME280;6396;58.490;15.528;2023-02-19T04:56:39;99881.66;;;0.42;100.00
12664;BME280;6396;58.490;15.528;2023-02-19T04:59:07;99009.47;;;-4.80;100.00
12664;BME280;6396;58.490;15.528;2023-02-19T05:01:36;99981.34;;;1.10;100.00
12664;BME280;6396;58.490;15.528;2023-02-19T05:04:03;99149.91;;;-4.16;100.00
12664;BME280;6396;58.490;15.528;2023-02-19T05:06:31;99278.59;;;-3.26;100.00
12664;BME280;6396;58.490;15.528;2023-02-19T05:08:59;99130.34;;;-3.90;100.00
12664;BME280;6396;58.490;15.528;2023-02-19T05:11:27;99840.81;;;-0.17;100.00
12664;BME280;6396;58.490;15.528;2023-02-19T05:13:54;99497.06;;;-2.27;100.00
12664;BME280;6396;58.490;15.528;2023-02-19T05:16:22;99101.53;;;-4.50;100.00
12664;BME280;6396;58.490;15.528;2023-02-19T05:18:49;99498.00;;;-2.12;100.00
12664;BME280;6396;58.490;15.528;2023-02-19T05:21:16;99319.06;;;-3.22;100.00
12664;BME280;6396;58.490;15.528;2023-02-19T05:23:44;99592.44;;;-1.32;100.00
12664;BME280;6396;58.490;15.528;2023-02-19T05:26:16;99742.22;;;-0.26;100.00
12664;BME280;6396;58.490;15.528;2023-02-19T05:28:48;99120.31;;;-4.61;100.00
12664;BME280;6396;58.490;15.528;2023-02-19T05:31:15;99089.41;;;-4.64;100.00
12664;BME280;6396;58.490;15.528;2023-02-19T05:33:43;99572.56;;;-1.39;100.00
12664;BME280;6396;58.490;15.528;2023-02-19T05:36:14;99775.00;;;-0.44;100.00
12664;BME280;6396;58.490;15.528;2023-02-19T05:38:42;99774.13;;;-0.43;100.00
12664;BME280;6396;58.490;15.528;2023-02-19T05:41:12;99036.69;;;-5.03;100.00
12664;BME280;6396;58.490;15.528;2023-02-19T05:43:40;99116.16;;;-4.48;100.00
12664;BME280;6396;58.490;15.528;2023-02-19T05:46:12;99983.03;;;0.93;100.00
12664;BME280;6396;58.490;15.528;2023-02-19T05:48:44;100110.38;;;0.96;100.00
12664;BME280;6396;58.490;15.528;2023-02-19T05:51:13;99185.78;;;-4.33;100.00
12664;BME280;6396;58.490;15.528;2023-02-19T05:53:43;99269.22;;;-4.17;100.00
12664;BME280;6396;58.490;15.528;2023-02-19T05:56:24;99319.50;;;-3.70;100.00
12664;BME280;6396;58.490;15.528;2023-02-19T05:58:53;100005.44;;;0.58;100.00
12664;BME280;6396;58.490;15.528;2023-02-19T06:01:23;100143.22;;;0.82;100.00
12664;BME280;6396;58.490;15.528;2023-02-19T06:03:51;99215.09;;;-4.22;100.00
12664;BME280;6396;58.490;15.528;2023-02-19T06:06:20;99635.44;;;-1.52;100.00
12664;BME280;6396;58.490;15.528;2023-02-19T06:08:48;99536.88;;;-2.00;100.00
12664;BME280;6396;58.490;15.528;2023-02-19T06:11:15;99050.59;;;-4.85;100.00
12664;BME280;6396;58.490;15.528;2023-02-19T06:13:43;99166.88;;;-4.36;100.00
12664;BME280;6396;58.490;15.528;2023-02-19T06:16:10;99098.88;;;-4.57;100.00
12664;BME280;6396;58.490;15.528;2023-02-19T06:18:39;99569.91;;;-2.70;100.00
12664;BME280;6396;58.490;15.528;2023-02-19T06:21:09;99556.38;;;-2.42;100.00
12664;BME280;6396;58.490;15.528;2023-02-19T06:23:40;99245.81;;;-4.38;100.00
12664;BME280;6396;58.490;15.528;2023-02-19T06:26:11;99225.44;;;-4.16;100.00
12664;BME280;6396;58.490;15.528;2023-02-19T06:28:43;99190.66;;;-4.60;100.00
12664;BME280;6396;58.490;15.528;2023-02-19T06:31:21;99242.59;;;-4.19;100.00
12664;BME280;6396;58.490;15.528;2023-02-19T06:33:50;99486.63;;;-2.42;100.00
12664;BME280;6396;58.490;15.528;2023-02-19T06:36:18;99486.56;;;-2.48;100.00
12664;BME280;6396;58.490;15.528;2023-02-19T06:38:45;99954.34;;;0.40;100.00
12664;BME280;6396;58.490;15.528;2023-02-19T06:41:12;99074.34;;;-5.10;100.00
12664;BME280;6396;58.490;15.528;2023-02-19T06:43:41;99781.47;;;-1.23;100.00
12664;BME280;6396;58.490;15.528;2023-02-19T06:46:10;100102.56;;;0.85;100.00
12664;BME280;6396;58.490;15.528;2023-02-19T06:48:38;100046.25;;;0.84;100.00
12664;BME280;6396;58.490;15.528;2023-02-19T06:51:07;99759.19;;;-0.97;100.00
12664;BME280;6396;58.490;15.528;2023-02-19T06:53:35;100027.97;;;0.59;100.00
12664;BME280;6396;58.490;15.528;2023-02-19T06:56:04;99598.56;;;-2.43;100.00
12664;BME280;6396;58.490;15.528;2023-02-19T06:58:32;100102.56;;;0.93;100.00
12664;BME280;6396;58.490;15.528;2023-02-19T07:00:59;99733.34;;;-0.88;100.00
12664;BME280;6396;58.490;15.528;2023-02-19T07:03:26;100087.00;;;0.99;100.00
12664;BME280;6396;58.490;15.528;2023-02-19T07:05:53;99515.00;;;-2.48;100.00
12664;BME280;6396;58.490;15.528;2023-02-19T07:08:21;99774.59;;;-1.14;100.00
12664;BME280;6396;58.490;15.528;2023-02-19T07:10:53;99535.38;;;-2.81;100.00
12664;BME280;6396;58.490;15.528;2023-02-19T07:13:21;99294.19;;;-4.12;100.00
12664;BME280;6396;58.490;15.528;2023-02-19T07:15:48;99699.56;;;-1.07;100.00
12664;BME280;6396;58.490;15.528;2023-02-19T07:18:14;100110.41;;;1.05;100.00
12664;BME280;6396;58.490;15.528;2023-02-19T07:20:41;99600.00;;;-1.65;100.00
12664;BME280;6396;58.490;15.528;2023-02-19T07:23:08;99953.41;;;0.26;100.00
12664;BME280;6396;58.490;15.528;2023-02-19T07:29:11;100080.13;;;1.16;100.00
12664;BME280;6396;58.490;15.528;2023-02-19T07:31:53;99245.91;;;-4.32;100.00
12664;BME280;6396;58.490;15.528;2023-02-19T08:07:42;100099.00;;;3.17;100.00
12664;BME280;6396;58.490;15.528;2023-02-19T08:10:11;100101.50;;;3.38;100.00
12664;BME280;6396;58.490;15.528;2023-02-19T08:12:55;100121.44;;;3.51;100.00
12664;BME280;6396;58.490;15.528;2023-02-19T08:15:45;99506.22;;;0.02;100.00
12664;BME280;6396;58.490;15.528;2023-02-19T08:18:26;99831.41;;;1.41;100.00
12664;BME280;6396;58.490;15.528;2023-02-19T08:20:57;99688.69;;;0.16;100.00
12664;BME280;6396;58.490;15.528;2023-02-19T08:26:39;99760.47;;;0.98;100.00
12664;BME280;6396;58.490;15.528;2023-02-19T08:29:07;99736.19;;;1.11;100.00
12664;BME280;6396;58.490;15.528;2023-02-19T08:31:51;99817.63;;;0.86;100.00
12664;BME280;6396;58.490;15.528;2023-02-19T08:34:17;100165.94;;;3.19;100.00
12664;BME280;6396;58.490;15.528;2023-02-19T08:36:44;99605.63;;;0.34;100.00
12664;BME280;6396;58.490;15.528;2023-02-19T08:39:11;100153.59;;;3.56;100.00
12664;BME280;6396;58.490;15.528;2023-02-19T08:41:53;100104.72;;;3.79;100.00
12664;BME280;6396;58.490;15.528;2023-02-19T08:44:23;100201.13;;;4.06;100.00
12664;BME280;6396;58.490;15.528;2023-02-19T08:47:14;99836.03;;;2.69;100.00
12664;BME280;6396;58.490;15.528;2023-02-19T08:52:08;100101.50;;;4.48;96.82
12664;BME280;6396;58.490;15.528;2023-02-19T09:06:59;99238.28;;;-0.16;81.68
12664;BME280;6396;58.490;15.528;2023-02-19T09:09:42;99831.41;;;3.86;90.81
12664;BME280;6396;58.490;15.528;2023-02-19T09:12:46;99639.38;;;3.00;100.00
12664;BME280;6396;58.490;15.528;2023-02-19T09:15:45;100151.34;;;5.78;77.95
12664;BME280;6396;58.490;15.528;2023-02-19T09:18:35;99871.91;;;4.18;76.82
12664;BME280;6396;58.490;15.528;2023-02-19T09:21:17;99731.72;;;3.57;82.16
12664;BME280;6396;58.490;15.528;2023-02-19T09:27:41;99395.34;;;1.55;79.94
12664;BME280;6396;58.490;15.528;2023-02-19T09:37:34;100136.31;;;5.93;76.65
12664;BME280;6396;58.490;15.528;2023-02-19T09:43:27;99768.47;;;4.07;72.52
12664;BME280;6396;58.490;15.528;2023-02-19T09:46:23;100287.00;;;6.21;76.82
12664;BME280;6396;58.490;15.528;2023-02-19T09:52:30;99757.50;;;3.81;81.69
12664;BME280;6396;58.490;15.528;2023-02-19T10:06:10;100151.50;;;7.63;65.55
12664;BME280;6396;58.490;15.528;2023-02-19T10:08:54;99627.31;;;4.65;67.13
12664;BME280;6396;58.490;15.528;2023-02-19T10:11:47;99329.00;;;1.93;61.90
12664;BME280;6396;58.490;15.528;2023-02-19T10:14:16;99339.72;;;2.35;63.42
12664;BME280;6396;58.490;15.528;2023-02-19T10:20:05;99380.09;;;2.00;59.96
12664;BME280;6396;58.490;15.528;2023-02-19T10:41:10;99907.31;;;4.42;60.47
12664;BME280;6396;58.490;15.528;2023-02-19T10:43:41;99423.91;;;2.35;68.01
12664;BME280;6396;58.490;15.528;2023-02-19T10:46:16;99278.44;;;1.44;62.92
12664;BME280;6396;58.490;15.528;2023-02-19T10:48:49;99728.31;;;4.14;63.64
12664;BME280;6396;58.490;15.528;2023-02-19T10:51:18;99844.84;;;5.36;65.62
12664;BME280;6396;58.490;15.528;2023-02-19T10:53:49;99685.53;;;4.22;62.28
12664;BME280;6396;58.490;15.528;2023-02-19T10:56:23;100124.50;;;6.71;57.97
12664;BME280;6396;58.490;15.528;2023-02-19T10:58:50;99922.94;;;5.06;65.95
12664;BME280;6396;58.490;15.528;2023-02-19T11:01:21;99590.66;;;3.03;64.71
12664;BME280;6396;58.490;15.528;2023-02-19T11:03:51;99945.84;;;4.92;68.12
12664;BME280;6396;58.490;15.528;2023-02-19T11:06:19;99737.81;;;3.56;65.14
12664;BME280;6396;58.490;15.528;2023-02-19T11:08:53;99814.94;;;3.81;67.93
12664;BME280;6396;58.490;15.528;2023-02-19T11:11:27;100192.75;;;6.15;61.55
12664;BME280;6396;58.490;15.528;2023-02-19T11:14:00;100181.34;;;6.18;65.20
12664;BME280;6396;58.490;15.528;2023-02-19T11:16:43;100219.66;;;6.28;61.51
12664;BME280;6396;58.490;15.528;2023-02-19T11:19:29;100079.72;;;5.82;62.83
12664;BME280;6396;58.490;15.528;2023-02-19T11:21:58;100030.16;;;5.68;67.38
12664;BME280;6396;58.490;15.528;2023-02-19T11:24:29;100206.59;;;6.76;67.80
12664;BME280;6396;58.490;15.528;2023-02-19T11:27:01;99382.66;;;2.03;63.50
12664;BME280;6396;58.490;15.528;2023-02-19T11:29:29;100183.31;;;7.06;64.69
12664;BME280;6396;58.490;15.528;2023-02-19T11:32:20;100198.97;;;7.12;56.27
12664;BME280;6396;58.490;15.528;2023-02-19T11:34:49;99664.97;;;4.00;65.12
12664;BME280;6396;58.490;15.528;2023-02-19T11:37:17;99823.31;;;5.21;59.88
12664;BME280;6396;58.490;15.528;2023-02-19T11:39:49;100195.72;;;7.42;61.68
12664;BME280;6396;58.490;15.528;2023-02-19T11:42:41;100221.94;;;7.45;58.63
12664;BME280;6396;58.490;15.528;2023-02-19T11:45:21;99492.09;;;3.28;58.85
12664;BME280;6396;58.490;15.528;2023-02-19T11:50:57;99729.94;;;5.21;58.68
12664;BME280;6396;58.490;15.528;2023-02-19T11:53:30;99946.44;;;6.56;56.06
12664;BME280;6396;58.490;15.528;2023-02-19T11:56:14;100074.03;;;7.43;57.96
12664;BME280;6396;58.490;15.528;2023-02-19T11:59:00;100106.38;;;7.83;55.95
12664;BME280;6396;58.490;15.528;2023-02-19T12:04:56;100199.25;;;8.58;51.71
12664;BME280;6396;58.490;15.528;2023-02-19T12:07:43;99593.09;;;4.77;54.44
12664;BME280;6396;58.490;15.528;2023-02-19T12:10:18;100042.06;;;7.98;58.53
12664;BME280;6396;58.490;15.528;2023-02-19T12:12:58;99778.50;;;6.23;53.98
12664;BME280;6396;58.490;15.528;2023-02-19T12:15:39;99940.94;;;6.68;53.03
12664;BME280;6396;58.490;15.528;2023-02-19T12:18:29;99896.56;;;6.98;49.21
12664;BME280;6396;58.490;15.528;2023-02-19T12:21:13;99896.63;;;7.30;52.19
12664;BME280;6396;58.490;15.528;2023-02-19T12:24:02;100239.44;;;8.98;53.13
12664;BME280;6396;58.490;15.528;2023-02-19T12:26:38;100232.66;;;8.90;54.57
12664;BME280;6396;58.490;15.528;2023-02-19T12:29:21;100220.78;;;8.74;51.82
12664;BME280;6396;58.490;15.528;2023-02-19T12:32:11;100186.13;;;8.57;53.98
12664;BME280;6396;58.490;15.528;2023-02-19T12:38:02;100199.06;;;8.31;58.39
12664;BME280;6396;58.490;15.528;2023-02-19T12:40:42;100200.16;;;8.19;54.46
12664;BME280;6396;58.490;15.528;2023-02-19T12:43:16;100228.47;;;8.08;53.73
12664;BME280;6396;58.490;15.528;2023-02-19T12:45:46;100191.78;;;8.02;54.81
12664;BME280;6396;58.490;15.528;2023-02-19T12:48:24;99927.81;;;6.27;57.13
12664;BME280;6396;58.490;15.528;2023-02-19T12:50:56;100095.13;;;7.40;57.66
12664;BME280;6396;58.490;15.528;2023-02-19T12:53:31;100127.66;;;7.33;51.98
12664;BME280;6396;58.490;15.528;2023-02-19T12:56:04;100281.28;;;7.55;54.19
12664;BME280;6396;58.490;15.528;2023-02-19T12:58:37;99691.28;;;4.93;56.35
12664;BME280;6396;58.490;15.528;2023-02-19T13:01:06;100170.91;;;7.56;57.65
12664;BME280;6396;58.490;15.528;2023-02-19T13:03:40;99681.28;;;4.66;58.67
12664;BME280;6396;58.490;15.528;2023-02-19T13:06:17;99958.34;;;5.81;52.80
12664;BME280;6396;58.490;15.528;2023-02-19T13:08:50;99999.97;;;6.46;55.77
12664;BME280;6396;58.490;15.528;2023-02-19T13:11:23;100124.78;;;7.02;56.29
12664;BME280;6396;58.490;15.528;2023-02-19T13:13:54;100073.34;;;6.48;58.08
12664;BME280;6396;58.490;15.528;2023-02-19T13:16:24;99699.94;;;4.44;58.60
12664;BME280;6396;58.490;15.528;2023-02-19T13:19:09;100197.84;;;7.23;58.46
12664;BME280;6396;58.490;15.528;2023-02-19T13:21:40;99629.97;;;4.11;56.48
12664;BME280;6396;58.490;15.528;2023-02-19T13:24:27;100218.94;;;7.20;58.09
12664;BME280;6396;58.490;15.528;2023-02-19T13:27:06;100194.00;;;6.95;56.85
12664;BME280;6396;58.490;15.528;2023-02-19T13:29:57;100247.44;;;6.93;55.70
12664;BME280;6396;58.490;15.528;2023-02-19T13:32:44;99882.94;;;5.01;53.31
12664;BME280;6396;58.490;15.528;2023-02-19T13:35:26;100021.47;;;5.66;63.86
12664;BME280;6396;58.490;15.528;2023-02-19T13:37:54;100220.59;;;6.75;59.81
12664;BME280;6396;58.490;15.528;2023-02-19T13:40:30;100029.97;;;5.80;57.34
12664;BME280;6396;58.490;15.528;2023-02-19T13:43:00;100205.06;;;6.63;62.94
12664;BME280;6396;58.490;15.528;2023-02-19T13:45:31;100248.91;;;6.57;61.03
12664;BME280;6396;58.490;15.528;2023-02-19T13:48:11;100182.06;;;6.29;58.53
12664;BME280;6396;58.490;15.528;2023-02-19T13:50:41;100208.75;;;6.53;59.51
12664;BME280;6396;58.490;15.528;2023-02-19T13:56:46;100241.22;;;6.45;57.35
12664;BME280;6396;58.490;15.528;2023-02-19T13:59:25;100173.75;;;6.01;56.44
12664;BME280;6396;58.490;15.528;2023-02-19T14:05:04;100242.50;;;6.18;60.58
12664;BME280;6396;58.490;15.528;2023-02-19T14:07:51;100182.69;;;5.87;60.17
12664;BME280;6396;58.490;15.528;2023-02-19T14:13:54;100228.00;;;5.93;56.62
12664;BME280;6396;58.490;15.528;2023-02-19T14:16:30;100178.16;;;5.31;56.14
12664;BME280;6396;58.490;15.528;2023-02-19T14:18:59;100233.28;;;5.90;63.18
12664;BME280;6396;58.490;15.528;2023-02-19T14:21:34;100262.19;;;5.81;58.01
12664;BME280;6396;58.490;15.528;2023-02-19T14:24:04;99972.03;;;4.19;63.05
12664;BME280;6396;58.490;15.528;2023-02-19T14:26:35;100201.31;;;5.64;63.03
12664;BME280;6396;58.490;15.528;2023-02-19T14:29:05;100094.31;;;4.69;62.84
12664;BME280;6396;58.490;15.528;2023-02-19T14:31:35;100214.50;;;5.56;66.30
12664;BME280;6396;58.490;15.528;2023-02-19T14:34:04;100073.47;;;4.63;61.52
12664;BME280;6396;58.490;15.528;2023-02-19T14:36:39;100215.53;;;5.45;64.00
12664;BME280;6396;58.490;15.528;2023-02-19T14:39:13;100037.97;;;4.43;64.71
12664;BME280;6396;58.490;15.528;2023-02-19T14:41:45;100252.22;;;5.39;65.75
12664;BME280;6396;58.490;15.528;2023-02-19T14:44:16;100240.97;;;5.32;69.90
12664;BME280;6396;58.490;15.528;2023-02-19T14:46:50;99645.53;;;2.03;72.98
12664;BME280;6396;58.490;15.528;2023-02-19T14:49:23;100233.22;;;5.22;72.82
12664;BME280;6396;58.490;15.528;2023-02-19T14:51:52;100144.88;;;4.66;69.52
12664;BME280;6396;58.490;15.528;2023-02-19T14:54:33;100220.25;;;5.11;74.00
12664;BME280;6396;58.490;15.528;2023-02-19T14:57:02;99900.81;;;3.17;72.31
12664;BME280;6396;58.490;15.528;2023-02-19T14:59:31;99937.97;;;3.46;76.14
12664;BME280;6396;58.490;15.528;2023-02-19T15:02:00;99658.84;;;1.60;74.41
12664;BME280;6396;58.490;15.528;2023-02-19T15:04:28;100212.56;;;4.96;72.95
12664;BME280;6396;58.490;15.528;2023-02-19T15:06:56;99943.53;;;2.98;78.37
12664;BME280;6396;58.490;15.528;2023-02-19T15:09:30;99957.50;;;2.89;77.38
12664;BME280;6396;58.490;15.528;2023-02-19T15:11:59;99648.78;;;0.89;77.66
12664;BME280;6396;58.490;15.528;2023-02-19T15:14:27;100223.25;;;4.75;74.39
12664;BME280;6396;58.490;15.528;2023-02-19T15:16:58;99792.13;;;2.07;75.68
12664;BME280;6396;58.490;15.528;2023-02-19T15:19:27;100266.06;;;4.65;75.34
12664;BME280;6396;58.490;15.528;2023-02-19T15:21:54;100194.19;;;4.07;77.23
12664;BME280;6396;58.490;15.528;2023-02-19T15:24:21;100082.25;;;3.59;79.22
12664;BME280;6396;58.490;15.528;2023-02-19T15:26:51;100247.88;;;4.48;71.74
12664;BME280;6396;58.490;15.528;2023-02-19T15:29:20;99744.75;;;1.45;75.31
12664;BME280;6396;58.490;15.528;2023-02-19T15:31:50;99948.94;;;2.65;69.62
12664;BME280;6396;58.490;15.528;2023-02-19T15:34:19;100340.34;;;4.26;83.83